createdAt,value
2019-06-11T00:00:45.542Z,17.67
2019-06-11T00:01:45.552Z,17.67
2019-06-11T00:02:45.633Z,17.70
2019-06-11T00:03:45.650Z,17.66
2019-06-11T00:04:45.697Z,17.66
2019-06-11T00:05:45.766Z,17.63
2019-06-11T00:06:45.782Z,17.69
2019-06-11T00:07:45.807Z,17.59
2019-06-11T00:08:45.847Z,17.46
2019-06-11T00:09:45.886Z,17.54
2019-06-11T00:10:45.931Z,17.48
2019-06-11T00:11:46.028Z,17.51
2019-06-11T00:12:46.017Z,17.48
2019-06-11T00:13:46.104Z,17.41
2019-06-11T00:14:46.122Z,17.50
2019-06-11T00:15:46.182Z,17.55
2019-06-11T00:16:46.204Z,17.53
2019-06-11T00:17:46.254Z,17.44
2019-06-11T00:18:46.265Z,17.50
2019-06-11T00:19:46.326Z,17.50
2019-06-11T00:20:46.368Z,17.50
2019-06-11T00:21:46.430Z,17.48
2019-06-11T00:22:46.449Z,17.41
2019-06-11T00:23:46.486Z,17.41
2019-06-11T00:24:46.533Z,17.48
2019-06-11T00:25:46.634Z,17.47
2019-06-11T00:26:46.631Z,17.41
2019-06-11T00:27:46.655Z,17.46
2019-06-11T00:28:46.721Z,17.46
2019-06-11T00:29:46.765Z,17.41
2019-06-11T00:30:46.807Z,17.36
2019-06-11T00:31:46.847Z,17.33
2019-06-11T00:32:46.943Z,17.33
2019-06-11T00:33:46.970Z,17.32
2019-06-11T00:34:46.970Z,17.36
2019-06-11T00:35:47.012Z,17.40
2019-06-11T00:36:47.036Z,17.32
2019-06-11T00:37:47.084Z,17.26
2019-06-11T00:38:47.130Z,17.28
2019-06-11T00:39:47.151Z,17.26
2019-06-11T00:40:47.255Z,17.26
2019-06-11T00:41:47.236Z,17.25
2019-06-11T00:42:47.290Z,17.26
2019-06-11T00:43:47.351Z,17.25
2019-06-11T00:44:47.388Z,17.23
2019-06-11T00:45:47.464Z,17.26
2019-06-11T00:46:47.479Z,17.23
2019-06-11T00:47:47.501Z,17.18
2019-06-11T00:48:47.552Z,17.25
2019-06-11T00:49:47.584Z,17.22
2019-06-11T00:50:47.633Z,17.14
2019-06-11T00:51:47.726Z,17.13
2019-06-11T00:52:47.713Z,17.13
2019-06-11T00:53:47.747Z,17.17
2019-06-11T00:54:47.802Z,17.15
2019-06-11T00:55:47.840Z,17.14
2019-06-11T00:56:47.907Z,17.14
2019-06-11T00:57:47.938Z,17.15
2019-06-11T00:58:47.968Z,17.11
2019-06-11T00:59:48.004Z,17.13
2019-06-11T01:00:48.069Z,17.14
2019-06-11T01:01:48.107Z,17.11
2019-06-11T01:02:48.139Z,17.10
2019-06-11T01:03:48.188Z,17.11
2019-06-11T01:04:48.220Z,17.14
2019-06-11T01:05:48.266Z,17.13
2019-06-11T01:06:48.315Z,17.08
2019-06-11T01:07:48.343Z,17.11
2019-06-11T01:08:48.378Z,17.14
2019-06-11T01:09:48.496Z,17.10
2019-06-11T01:10:48.470Z,17.10
2019-06-11T01:11:48.563Z,17.07
2019-06-11T01:12:48.544Z,17.07
2019-06-11T01:13:48.646Z,16.99
2019-06-11T01:14:48.646Z,17.06
2019-06-11T01:15:48.739Z,16.99
2019-06-11T01:16:48.764Z,17.04
2019-06-11T01:17:48.810Z,16.98
2019-06-11T01:18:48.852Z,17.03
2019-06-11T01:19:48.938Z,17.00
2019-06-11T01:20:48.887Z,17.00
2019-06-11T01:21:48.914Z,16.93
2019-06-11T01:22:48.984Z,16.95
2019-06-11T01:23:49.126Z,16.89
2019-06-11T01:24:49.125Z,16.93
2019-06-11T01:25:49.104Z,16.93
2019-06-11T01:26:49.196Z,16.80
2019-06-11T01:27:49.175Z,16.93
2019-06-11T01:28:49.266Z,16.92
2019-06-11T01:29:49.409Z,16.92
2019-06-11T01:30:49.298Z,16.90
2019-06-11T01:31:49.417Z,16.90
2019-06-11T01:33:01.202Z,16.89
2019-06-11T01:33:49.501Z,16.92
2019-06-11T01:34:49.635Z,16.92
2019-06-11T01:35:49.555Z,16.85
2019-06-11T01:36:49.612Z,16.90
2019-06-11T01:37:49.660Z,16.83
2019-06-11T01:38:49.639Z,16.81
2019-06-11T01:39:49.832Z,16.86
2019-06-11T01:40:49.775Z,16.78
2019-06-11T01:41:49.834Z,16.92
2019-06-11T01:42:52.207Z,16.80
2019-06-11T01:43:52.192Z,16.88
2019-06-11T01:44:51.908Z,16.88
2019-06-11T01:45:49.939Z,16.90
2019-06-11T01:46:52.657Z,16.88
2019-06-11T01:47:52.189Z,16.80
2019-06-11T01:48:50.048Z,16.89
2019-06-11T01:49:52.609Z,16.85
2019-06-11T01:50:52.844Z,16.75
2019-06-11T01:51:52.609Z,16.80
2019-06-11T01:52:52.296Z,16.77
2019-06-11T01:53:50.287Z,16.81
2019-06-11T01:54:52.321Z,16.80
2019-06-11T01:55:52.380Z,16.73
2019-06-11T01:56:52.407Z,16.70
2019-06-11T01:57:50.417Z,16.70
2019-06-11T01:58:52.613Z,16.70
2019-06-11T01:59:52.114Z,16.62
2019-06-11T02:00:53.294Z,16.62
2019-06-11T02:01:52.301Z,16.59
2019-06-11T02:02:53.060Z,16.58
2019-06-11T02:03:52.724Z,16.55
2019-06-11T02:04:52.843Z,16.53
2019-06-11T02:05:52.664Z,16.60
2019-06-11T02:06:53.070Z,16.53
2019-06-11T02:07:52.727Z,16.52
2019-06-11T02:08:52.252Z,16.52
2019-06-11T02:09:53.318Z,16.52
2019-06-11T02:10:52.943Z,16.44
2019-06-11T02:11:52.185Z,16.48
2019-06-11T02:12:52.729Z,16.49
2019-06-11T02:13:52.596Z,16.41
2019-06-11T02:14:52.741Z,16.38
2019-06-11T02:15:52.935Z,16.38
2019-06-11T02:16:53.255Z,16.37
2019-06-11T02:17:52.672Z,16.40
2019-06-11T02:18:53.024Z,16.41
2019-06-11T02:19:52.283Z,16.38
2019-06-11T02:20:53.423Z,16.42
2019-06-11T02:21:52.415Z,16.31
2019-06-11T02:22:53.305Z,16.31
2019-06-11T02:23:52.515Z,16.38
2019-06-11T02:24:54.568Z,16.41
2019-06-11T02:25:52.913Z,16.42
2019-06-11T02:26:52.813Z,16.31
2019-06-11T02:27:52.121Z,16.40
2019-06-11T02:28:52.928Z,16.40
2019-06-11T02:29:52.307Z,16.33
2019-06-11T02:31:00.515Z,16.35
2019-06-11T02:31:53.778Z,16.37
2019-06-11T02:32:54.753Z,16.34
2019-06-11T02:34:23.724Z,16.37
2019-06-11T02:35:05.631Z,16.35
2019-06-11T02:35:59.830Z,16.27
2019-06-11T02:36:52.596Z,16.31
2019-06-11T02:37:52.602Z,16.26
2019-06-11T02:38:52.149Z,16.26
2019-06-11T02:39:52.780Z,16.25
2019-06-11T02:40:52.278Z,16.26
2019-06-11T02:41:52.392Z,16.25
2019-06-11T02:42:52.353Z,16.31
2019-06-11T02:43:52.354Z,16.25
2019-06-11T02:44:52.861Z,16.31
2019-06-11T02:45:52.489Z,16.25
2019-06-11T02:46:52.484Z,16.31
2019-06-11T02:47:52.535Z,16.31
2019-06-11T02:48:55.433Z,16.33
2019-06-11T02:49:52.590Z,16.30
2019-06-11T02:50:52.978Z,16.26
2019-06-11T02:51:52.711Z,16.30
2019-06-11T02:52:52.737Z,16.16
2019-06-11T02:53:52.814Z,16.18
2019-06-11T02:54:52.809Z,16.20
2019-06-11T02:55:52.863Z,16.27
2019-06-11T02:56:52.896Z,16.18
2019-06-11T02:57:52.936Z,16.18
2019-06-11T02:58:52.980Z,16.23
2019-06-11T02:59:53.023Z,16.23
2019-06-11T03:00:53.602Z,16.20
2019-06-11T03:01:53.112Z,16.11
2019-06-11T03:02:53.134Z,16.26
2019-06-11T03:04:15.183Z,16.26
2019-06-11T03:05:03.027Z,16.15
2019-06-11T03:05:53.251Z,16.25
2019-06-11T03:06:53.290Z,16.27
2019-06-11T03:07:53.337Z,16.26
2019-06-11T03:08:53.399Z,16.22
2019-06-11T03:09:53.412Z,16.31
2019-06-11T03:10:56.510Z,16.25
2019-06-11T03:11:53.646Z,16.30
2019-06-11T03:12:53.573Z,16.16
2019-06-11T03:13:53.593Z,16.15
2019-06-11T03:14:53.627Z,16.16
2019-06-11T03:15:53.687Z,16.14
2019-06-11T03:16:53.732Z,16.14
2019-06-11T03:17:53.749Z,16.09
2019-06-11T03:18:53.844Z,16.16
2019-06-11T03:19:53.846Z,16.04
2019-06-11T03:20:53.934Z,16.04
2019-06-11T03:21:53.930Z,16.06
2019-06-11T03:22:53.965Z,16.04
2019-06-11T03:23:54.050Z,16.07
2019-06-11T03:24:54.041Z,16.11
2019-06-11T03:25:54.122Z,16.09
2019-06-11T03:26:54.139Z,16.07
2019-06-11T03:27:54.186Z,16.07
2019-06-11T03:53:04.978Z,16.01
2019-06-11T08:05:56.217Z,13.58
2019-06-11T08:06:56.352Z,13.65
2019-06-11T08:08:00.872Z,13.56
2019-06-11T08:08:55.309Z,13.55
2019-06-11T08:10:12.727Z,13.58
2019-06-11T08:11:00.785Z,13.56
2019-06-11T08:11:58.443Z,13.56
2019-06-11T08:13:01.660Z,13.56
2019-06-11T08:14:10.818Z,13.70
2019-06-11T08:14:56.304Z,13.55
2019-06-11T08:16:04.586Z,13.54
2019-06-11T08:16:56.580Z,13.54
2019-06-11T08:17:56.193Z,13.63
2019-06-11T08:19:02.350Z,13.49
2019-06-11T08:20:12.440Z,13.51
2019-06-11T08:21:14.586Z,13.47
2019-06-11T08:22:14.901Z,13.51
2019-06-11T08:23:03.011Z,13.55
2019-06-11T08:24:01.537Z,13.54
2019-06-11T08:25:02.915Z,13.49
2019-06-11T08:27:02.612Z,13.54
2019-06-11T08:28:07.007Z,13.55
2019-06-11T08:28:54.255Z,13.47
2019-06-11T08:29:54.301Z,13.46
2019-06-11T08:30:54.431Z,13.49
2019-06-11T08:31:54.378Z,13.43
2019-06-11T08:32:54.397Z,13.46
2019-06-11T08:34:01.092Z,13.43
2019-06-11T08:34:54.475Z,13.43
2019-06-11T08:35:54.528Z,13.41
2019-06-11T08:36:54.559Z,13.49
2019-06-11T08:37:54.602Z,13.58
2019-06-11T08:38:54.673Z,13.51
2019-06-11T08:40:12.027Z,13.51
2019-06-11T08:40:54.732Z,13.56
2019-06-11T08:41:54.754Z,13.54
2019-06-11T08:42:54.799Z,13.47
2019-06-11T08:43:54.839Z,13.58
2019-06-11T08:45:08.141Z,13.51
2019-06-11T08:45:54.912Z,13.51
2019-06-11T08:46:54.973Z,13.51
2019-06-11T08:47:55.012Z,13.49
2019-06-11T08:48:55.048Z,13.49
2019-06-11T08:49:55.087Z,13.49
2019-06-11T08:50:55.146Z,13.51
2019-06-11T08:51:55.166Z,13.49
2019-06-11T08:52:55.205Z,13.54
2019-06-11T08:53:55.239Z,13.54
2019-06-11T08:54:55.280Z,13.41
2019-06-11T08:55:55.370Z,13.51
2019-06-11T08:56:55.383Z,13.51
2019-06-11T08:57:55.400Z,13.47
2019-06-11T08:58:55.448Z,13.67
2019-06-11T09:00:26.830Z,13.62
2019-06-11T09:01:07.876Z,13.58
2019-06-11T09:01:55.574Z,13.59
2019-06-11T09:02:55.644Z,13.76
2019-06-11T09:03:55.631Z,13.59
2019-06-11T09:04:55.678Z,13.61
2019-06-11T09:05:55.713Z,13.67
2019-06-11T09:06:55.753Z,13.65
2019-06-11T09:07:55.805Z,13.67
2019-06-11T09:08:55.836Z,13.59
2019-06-11T09:09:55.873Z,13.61
2019-06-11T09:10:55.914Z,13.69
2019-06-11T09:11:55.964Z,13.67
2019-06-11T09:12:56.000Z,13.65
2019-06-11T09:13:56.035Z,13.71
2019-06-11T09:14:56.083Z,13.73
2019-06-11T09:15:56.119Z,13.73
2019-06-11T09:16:58.134Z,13.77
2019-06-11T09:17:56.215Z,13.80
2019-06-11T09:18:57.662Z,13.83
2019-06-11T09:19:56.279Z,13.83
2019-06-11T09:20:56.344Z,13.73
2019-06-11T09:21:56.353Z,13.77
2019-06-11T09:22:56.397Z,13.81
2019-06-11T09:23:57.337Z,13.80
2019-06-11T09:24:56.469Z,13.83
2019-06-11T09:25:56.541Z,13.84
2019-06-11T09:26:56.572Z,13.87
2019-06-11T09:27:56.629Z,13.94
2019-06-11T09:28:56.658Z,14.01
2019-06-11T09:29:57.146Z,14.07
2019-06-11T09:30:56.712Z,14.04
2019-06-11T09:32:01.190Z,14.13
2019-06-11T09:32:56.816Z,14.27
2019-06-11T09:33:56.847Z,14.25
2019-06-11T09:34:56.897Z,14.17
2019-06-11T09:35:56.922Z,14.20
2019-06-11T09:36:57.005Z,14.16
2019-06-11T09:37:57.006Z,14.19
2019-06-11T09:38:57.057Z,14.19
2019-06-11T09:39:57.103Z,14.14
2019-06-11T09:41:02.929Z,14.29
2019-06-11T09:41:57.155Z,14.20
2019-06-11T09:42:57.224Z,14.19
2019-06-11T09:43:57.249Z,14.19
2019-06-11T09:44:57.290Z,14.24
2019-06-11T09:46:01.743Z,14.20
2019-06-11T09:46:57.385Z,14.16
2019-06-11T09:48:04.059Z,14.25
2019-06-11T09:48:57.505Z,14.31
2019-06-11T09:50:00.154Z,14.25
2019-06-11T09:50:57.602Z,14.24
2019-06-11T09:51:57.557Z,14.35
2019-06-11T09:52:57.609Z,14.37
2019-06-11T09:53:57.648Z,14.20
2019-06-11T09:54:57.708Z,14.20
2019-06-11T09:56:00.167Z,14.27
2019-06-11T09:57:00.279Z,14.27
2019-06-11T09:58:01.717Z,14.29
2019-06-11T09:59:00.086Z,14.38
2019-06-11T09:59:57.907Z,14.27
2019-06-11T10:01:00.188Z,14.39
2019-06-11T10:01:57.969Z,14.28
2019-06-11T10:03:00.242Z,14.39
2019-06-11T10:03:58.059Z,14.39
2019-06-11T10:04:58.970Z,14.38
2019-06-11T10:06:00.268Z,14.46
2019-06-11T10:06:58.182Z,14.50
2019-06-11T10:08:00.419Z,14.46
2019-06-11T10:08:58.294Z,14.57
2019-06-11T10:09:59.957Z,14.64
2019-06-11T10:11:35.728Z,14.60
2019-06-11T10:12:03.649Z,14.68
2019-06-11T10:13:00.673Z,14.65
2019-06-11T10:14:00.978Z,14.61
2019-06-11T10:15:01.021Z,14.62
2019-06-11T10:16:00.450Z,14.60
2019-06-11T10:17:00.507Z,14.68
2019-06-11T10:17:58.622Z,14.67
2019-06-11T10:19:01.215Z,14.68
2019-06-11T10:19:58.705Z,14.65
2019-06-11T10:21:00.347Z,14.57
2019-06-11T10:21:58.781Z,14.61
2019-06-11T10:23:01.094Z,14.67
2019-06-11T10:24:00.862Z,14.65
2019-06-11T10:25:00.945Z,14.65
2019-06-11T10:26:01.052Z,14.64
2019-06-11T10:27:01.043Z,14.65
2019-06-11T10:28:14.470Z,14.67
2019-06-11T10:28:59.883Z,14.68
2019-06-11T10:30:00.357Z,14.72
2019-06-11T10:31:01.201Z,14.74
2019-06-11T10:32:00.263Z,14.80
2019-06-11T10:32:59.221Z,14.81
2019-06-11T10:34:01.447Z,14.88
2019-06-11T10:35:00.628Z,14.90
2019-06-11T10:36:00.573Z,14.94
2019-06-11T10:37:01.314Z,15.05
2019-06-11T10:38:00.465Z,15.02
2019-06-11T10:39:01.405Z,15.12
2019-06-11T10:39:59.942Z,15.13
2019-06-11T10:41:05.007Z,15.03
2019-06-11T10:42:04.291Z,15.03
2019-06-11T10:43:00.823Z,15.15
2019-06-11T10:44:00.379Z,15.13
2019-06-11T10:44:59.720Z,15.19
2019-06-11T10:46:01.695Z,15.19
2019-06-11T10:47:00.963Z,15.11
2019-06-11T10:48:00.795Z,15.28
2019-06-11T10:49:01.421Z,15.24
2019-06-11T10:50:00.782Z,15.27
2019-06-11T10:51:01.465Z,15.15
2019-06-11T10:52:00.021Z,15.08
2019-06-11T10:53:03.537Z,14.99
2019-06-11T10:54:00.126Z,15.02
2019-06-11T10:55:00.419Z,14.98
2019-06-11T10:56:02.008Z,14.99
2019-06-11T10:57:00.233Z,14.99
2019-06-11T10:58:01.415Z,15.06
2019-06-11T10:59:00.461Z,15.17
2019-06-11T11:00:03.220Z,15.26
2019-06-11T11:01:00.886Z,15.33
2019-06-11T11:02:02.397Z,15.56
2019-06-11T11:03:00.828Z,15.78
2019-06-11T11:04:02.950Z,16.00
2019-06-11T11:05:04.490Z,16.01
2019-06-11T11:06:01.540Z,15.93
2019-06-11T11:07:00.950Z,15.97
2019-06-11T11:08:00.671Z,16.04
2019-06-11T11:09:01.958Z,16.25
2019-06-11T11:10:01.192Z,16.58
2019-06-11T11:11:02.971Z,16.95
2019-06-11T11:12:16.981Z,17.29
2019-06-11T11:13:01.437Z,17.66
2019-06-11T11:14:01.569Z,18.09
2019-06-11T11:15:01.533Z,18.09
2019-06-11T11:16:01.681Z,18.18
2019-06-11T11:17:01.433Z,18.21
2019-06-11T11:18:09.101Z,18.37
2019-06-11T11:19:01.155Z,18.34
2019-06-11T11:20:03.522Z,18.55
2019-06-11T11:21:01.432Z,18.79
2019-06-11T11:22:01.282Z,18.92
2019-06-11T11:23:05.026Z,19.18
2019-06-11T11:24:01.512Z,19.33
2019-06-11T11:25:01.390Z,19.42
2019-06-11T11:26:08.040Z,19.50
2019-06-11T11:27:01.509Z,19.40
2019-06-11T11:28:16.593Z,19.48
2019-06-11T11:29:01.584Z,19.65
2019-06-11T11:30:01.662Z,19.75
2019-06-11T11:31:06.065Z,19.78
2019-06-11T11:32:01.734Z,19.88
2019-06-11T11:33:07.536Z,19.97
2019-06-11T11:34:01.810Z,19.90
2019-06-11T11:35:02.044Z,19.97
2019-06-11T11:36:02.302Z,20.10
2019-06-11T11:37:03.144Z,20.23
2019-06-11T11:38:04.948Z,20.21
2019-06-11T11:39:02.081Z,20.24
2019-06-11T11:40:02.099Z,20.38
2019-06-11T11:41:04.321Z,20.54
2019-06-11T11:42:04.786Z,20.49
2019-06-11T11:43:04.764Z,20.68
2019-06-11T11:44:04.045Z,20.95
2019-06-11T11:45:02.765Z,21.04
2019-06-11T11:46:05.896Z,21.09
2019-06-11T11:47:02.413Z,21.08
2019-06-11T11:48:03.410Z,21.21
2019-06-11T11:49:02.522Z,21.21
2019-06-11T11:50:02.567Z,21.16
2019-06-11T11:51:02.653Z,21.02
2019-06-11T11:52:02.665Z,21.09
2019-06-11T11:53:02.728Z,21.14
2019-06-11T11:54:02.798Z,21.35
2019-06-11T11:55:02.828Z,21.36
2019-06-11T11:56:02.880Z,21.45
2019-06-11T11:57:02.900Z,21.51
2019-06-11T11:58:02.976Z,21.46
2019-06-11T11:59:03.153Z,21.57
2019-06-11T12:00:09.227Z,22.02
2019-06-11T12:01:03.135Z,22.37
2019-06-11T12:02:06.224Z,22.56
2019-06-11T12:03:04.945Z,22.65
2019-06-11T12:04:06.732Z,22.74
2019-06-11T12:05:06.466Z,22.78
2019-06-11T12:06:03.549Z,22.96
2019-06-11T12:07:03.403Z,22.87
2019-06-11T12:08:03.464Z,22.68
2019-06-11T12:09:03.499Z,22.69
2019-06-11T12:10:03.540Z,22.65
2019-06-11T12:11:03.639Z,22.69
2019-06-11T12:12:03.630Z,22.57
2019-06-11T12:13:06.787Z,22.23
2019-06-11T12:14:03.746Z,21.98
2019-06-11T12:15:07.613Z,21.94
2019-06-11T12:16:07.873Z,21.97
2019-06-11T12:17:03.923Z,22.07
2019-06-11T12:18:03.959Z,22.14
2019-06-11T12:19:16.981Z,22.14
2019-06-11T12:20:04.055Z,22.20
2019-06-11T12:21:06.169Z,22.20
2019-06-11T12:22:04.143Z,22.10
2019-06-11T12:23:08.429Z,22.04
2019-06-11T12:24:04.247Z,22.04
2019-06-11T12:25:21.542Z,22.06
2019-06-11T12:26:04.354Z,22.07
2019-06-11T12:27:04.398Z,22.01
2019-06-11T12:28:04.888Z,22.09
2019-06-11T12:29:04.474Z,21.98
2019-06-11T12:30:11.051Z,22.23
2019-06-11T12:31:04.713Z,22.37
2019-06-11T12:32:08.153Z,22.78
2019-06-11T12:33:04.679Z,22.99
2019-06-11T12:34:04.768Z,23.15
2019-06-11T12:35:04.788Z,23.09
2019-06-11T12:36:05.183Z,23.15
2019-06-11T12:37:04.872Z,23.09
2019-06-11T12:38:04.953Z,23.24
2019-06-11T12:39:05.083Z,23.23
2019-06-11T12:40:05.042Z,23.17
2019-06-11T12:41:08.431Z,23.39
2019-06-11T12:42:06.270Z,23.67
2019-06-11T12:43:28.700Z,23.92
2019-06-11T12:44:05.257Z,24.14
2019-06-11T12:45:05.313Z,24.35
2019-06-11T12:46:06.048Z,24.44
2019-06-11T12:47:05.544Z,24.59
2019-06-11T12:48:05.430Z,24.31
2019-06-11T12:49:06.745Z,24.31
2019-06-11T12:50:05.545Z,24.07
2019-06-11T12:51:11.393Z,23.95
2019-06-11T12:52:06.374Z,24.01
2019-06-11T12:53:07.375Z,24.13
2019-06-11T12:54:05.757Z,24.14
2019-06-11T12:55:07.783Z,24.16
2019-06-11T12:56:05.863Z,24.29
2019-06-11T12:57:06.185Z,24.19
2019-06-11T12:58:07.626Z,24.13
2019-06-11T12:59:07.210Z,24.07
2019-06-11T13:00:08.924Z,24.44
2019-06-11T13:01:07.093Z,24.82
2019-06-11T13:02:06.167Z,24.94
2019-06-11T13:03:06.216Z,24.83
2019-06-11T13:04:08.405Z,24.79
2019-06-11T13:05:06.300Z,24.73
2019-06-11T13:06:07.231Z,24.76
2019-06-11T13:07:06.441Z,24.85
2019-06-11T13:08:09.592Z,24.85
2019-06-11T13:09:06.532Z,24.60
2019-06-11T13:10:06.593Z,24.45
2019-06-11T13:11:07.657Z,24.35
2019-06-11T13:12:06.976Z,24.45
2019-06-11T13:13:06.732Z,24.31
2019-06-11T13:14:06.821Z,24.54
2019-06-11T13:15:09.551Z,24.79
2019-06-11T13:16:06.903Z,25.17
2019-06-11T13:17:09.667Z,25.01
2019-06-11T13:18:07.010Z,24.91
2019-06-11T13:19:07.141Z,24.71
2019-06-11T13:20:07.106Z,24.27
2019-06-11T13:21:07.366Z,24.61
2019-06-11T13:22:07.216Z,24.97
2019-06-11T13:23:07.278Z,24.87
2019-06-11T13:24:08.107Z,24.91
2019-06-11T13:25:07.372Z,24.91
2019-06-11T13:26:07.399Z,25.10
2019-06-11T13:27:07.471Z,24.98
2019-06-11T13:28:07.542Z,25.12
2019-06-11T13:29:08.019Z,25.32
2019-06-11T13:30:10.205Z,25.67
2019-06-11T13:31:08.716Z,25.98
2019-06-11T13:32:08.137Z,26.18
2019-06-11T13:33:07.843Z,26.20
2019-06-11T13:34:07.843Z,25.91
2019-06-11T13:35:10.531Z,25.77
2019-06-11T13:36:10.796Z,25.97
2019-06-11T13:37:07.994Z,25.94
2019-06-11T13:38:16.589Z,25.82
2019-06-11T13:39:10.862Z,26.06
2019-06-11T13:40:09.814Z,26.24
2019-06-11T13:41:12.103Z,26.20
2019-06-11T13:42:14.256Z,26.20
2019-06-11T13:43:10.580Z,26.32
2019-06-11T13:44:29.432Z,26.49
2019-06-11T13:45:11.014Z,26.55
2019-06-11T13:46:10.293Z,26.52
2019-06-11T13:47:10.953Z,26.43
2019-06-11T13:48:10.842Z,26.61
2019-06-11T13:49:11.189Z,26.61
2019-06-11T13:50:11.291Z,26.50
2019-06-11T13:51:11.545Z,26.35
2019-06-11T13:52:11.071Z,26.05
2019-06-11T13:53:10.701Z,25.71
2019-06-11T13:54:08.939Z,25.74
2019-06-11T13:55:11.494Z,25.93
2019-06-11T13:56:11.278Z,26.15
2019-06-11T13:57:11.798Z,26.40
2019-06-11T13:58:10.947Z,26.59
2019-06-11T13:59:13.224Z,26.76
2019-06-11T14:00:14.762Z,26.91
2019-06-11T14:01:11.251Z,27.09
2019-06-11T14:02:11.868Z,27.09
2019-06-11T14:03:13.940Z,26.95
2019-06-11T14:04:10.450Z,26.98
2019-06-11T14:05:10.578Z,27.11
2019-06-11T14:06:09.613Z,27.38
2019-06-11T14:07:09.659Z,27.51
2019-06-11T14:08:10.659Z,27.77
2019-06-11T14:09:15.446Z,27.80
2019-06-11T14:10:11.084Z,27.82
2019-06-11T14:11:11.734Z,27.80
2019-06-11T14:12:10.342Z,28.01
2019-06-11T14:13:10.616Z,27.91
2019-06-11T14:14:25.038Z,27.89
2019-06-11T14:15:13.430Z,27.88
2019-06-11T14:16:10.735Z,27.96
2019-06-11T14:17:11.138Z,27.98
2019-06-11T14:18:10.559Z,27.91
2019-06-11T14:19:10.300Z,27.92
2019-06-11T14:20:11.087Z,28.01
2019-06-11T14:21:12.902Z,28.01
2019-06-11T14:22:10.915Z,28.25
2019-06-11T14:23:10.619Z,28.11
2019-06-11T14:24:12.218Z,27.89
2019-06-11T14:25:10.606Z,27.92
2019-06-11T14:26:10.714Z,28.03
2019-06-11T14:27:10.695Z,27.92
2019-06-11T14:28:10.766Z,27.43
2019-06-11T14:29:20.314Z,27.39
2019-06-11T14:30:18.310Z,27.41
2019-06-11T14:31:29.994Z,27.62
2019-06-11T14:32:11.040Z,27.95
2019-06-11T14:33:12.077Z,28.17
2019-06-11T14:34:11.647Z,28.21
2019-06-11T14:35:11.743Z,27.96
2019-06-11T14:36:13.960Z,27.98
2019-06-11T14:37:11.248Z,27.98
2019-06-11T14:38:12.005Z,27.96
2019-06-11T14:39:11.533Z,27.85
2019-06-11T14:40:12.028Z,28.01
2019-06-11T14:41:12.104Z,28.28
2019-06-11T14:42:11.558Z,28.21
2019-06-11T14:43:12.400Z,28.32
2019-06-11T14:44:21.925Z,28.28
2019-06-11T14:45:11.747Z,28.25
2019-06-11T14:46:11.769Z,28.48
2019-06-11T14:47:12.951Z,28.46
2019-06-11T14:48:11.876Z,28.31
2019-06-11T14:49:12.307Z,28.10
2019-06-11T14:50:16.721Z,27.94
2019-06-11T14:51:12.509Z,28.03
2019-06-11T14:52:12.104Z,27.91
2019-06-11T14:53:12.168Z,27.85
2019-06-11T14:54:16.705Z,28.09
2019-06-11T14:55:16.071Z,28.38
2019-06-11T14:56:14.036Z,28.59
2019-06-11T14:57:13.878Z,29.00
2019-06-11T14:58:12.417Z,29.10
2019-06-11T14:59:12.820Z,29.16
2019-06-11T15:00:12.590Z,29.08
2019-06-11T15:01:13.580Z,28.88
2019-06-11T15:02:12.643Z,28.90
2019-06-11T15:03:13.910Z,29.11
2019-06-11T15:04:13.833Z,29.29
2019-06-11T15:05:13.100Z,29.47
2019-06-11T15:06:12.866Z,29.62
2019-06-11T15:07:14.923Z,29.72
2019-06-11T15:08:14.498Z,29.50
2019-06-11T15:09:14.140Z,29.53
2019-06-11T15:10:13.149Z,29.44
2019-06-11T15:11:14.396Z,29.20
2019-06-11T15:12:16.827Z,29.08
2019-06-11T15:13:13.256Z,29.16
2019-06-11T15:14:14.072Z,29.25
2019-06-11T15:15:19.330Z,29.35
2019-06-11T15:16:13.421Z,29.44
2019-06-11T15:17:13.464Z,29.50
2019-06-11T15:18:16.138Z,29.19
2019-06-11T15:19:14.616Z,29.04
2019-06-11T15:20:21.477Z,29.13
2019-06-11T15:21:13.915Z,28.95
2019-06-11T15:22:13.732Z,28.87
2019-06-11T15:23:13.826Z,29.10
2019-06-11T15:24:15.838Z,29.18
2019-06-11T15:25:13.922Z,28.88
2019-06-11T15:26:14.625Z,29.03
2019-06-11T15:27:14.028Z,29.10
2019-06-11T15:28:14.937Z,29.07
2019-06-11T15:29:14.431Z,29.06
2019-06-11T15:30:23.119Z,29.13
2019-06-11T15:31:14.551Z,29.22
2019-06-11T15:32:14.843Z,29.19
2019-06-11T15:33:15.904Z,28.93
2019-06-11T15:34:15.771Z,28.84
2019-06-11T15:35:16.250Z,28.88
2019-06-11T15:36:16.248Z,29.13
2019-06-11T15:37:14.574Z,29.18
2019-06-11T15:38:17.892Z,29.29
2019-06-11T15:39:15.084Z,29.19
2019-06-11T15:40:16.114Z,29.35
2019-06-11T15:41:15.613Z,29.29
2019-06-11T15:42:14.859Z,29.25
2019-06-11T15:43:17.704Z,28.68
2019-06-11T15:44:16.939Z,28.43
2019-06-11T15:45:34.204Z,28.32
2019-06-11T15:46:16.754Z,28.06
2019-06-11T15:47:15.748Z,28.17
2019-06-11T15:48:15.651Z,28.21
2019-06-11T15:49:19.967Z,28.22
2019-06-11T15:50:15.331Z,28.09
2019-06-11T15:51:15.333Z,28.03
2019-06-11T15:52:15.410Z,27.98
2019-06-11T15:53:15.428Z,27.70
2019-06-11T15:54:17.568Z,27.73
2019-06-11T15:55:15.543Z,27.51
2019-06-11T15:56:32.796Z,27.26
2019-06-11T15:57:15.638Z,27.28
2019-06-11T15:58:15.695Z,27.09
2019-06-11T15:59:16.117Z,26.84
2019-06-11T16:00:15.813Z,26.77
2019-06-11T16:01:15.868Z,26.69
2019-06-11T16:02:18.446Z,26.68
2019-06-11T16:03:15.957Z,26.67
2019-06-11T16:04:17.935Z,26.58
2019-06-11T16:05:16.096Z,26.67
2019-06-11T16:06:25.814Z,26.64
2019-06-11T16:07:16.143Z,26.80
2019-06-11T16:08:16.201Z,26.86
2019-06-11T16:09:27.243Z,26.79
2019-06-11T16:10:16.500Z,26.72
2019-06-11T16:11:16.357Z,26.64
2019-06-11T16:12:17.136Z,26.54
2019-06-11T16:13:17.231Z,26.37
2019-06-11T16:14:16.501Z,26.35
2019-06-11T16:15:35.635Z,26.47
2019-06-11T16:16:21.814Z,26.49
2019-06-11T16:17:16.689Z,26.58
2019-06-11T16:18:18.026Z,26.72
2019-06-11T16:19:16.763Z,26.72
2019-06-11T16:20:18.853Z,26.68
2019-06-11T16:21:17.090Z,26.39
2019-06-11T16:22:17.439Z,26.21
2019-06-11T16:23:17.070Z,26.21
2019-06-11T16:24:17.040Z,26.27
2019-06-11T16:25:17.835Z,26.31
2019-06-11T16:26:17.314Z,26.37
2019-06-11T16:27:17.167Z,26.24
2019-06-11T16:28:18.152Z,26.18
2019-06-11T16:29:17.904Z,26.17
2019-06-11T16:30:18.653Z,26.09
2019-06-11T16:31:17.929Z,26.06
2019-06-11T16:32:20.683Z,25.91
2019-06-11T16:33:18.176Z,25.87
2019-06-11T16:34:20.707Z,25.68
2019-06-11T16:35:18.982Z,25.61
2019-06-11T16:36:22.675Z,25.57
2019-06-11T16:37:18.022Z,25.64
2019-06-11T16:38:20.158Z,25.57
2019-06-11T16:39:17.779Z,25.75
2019-06-11T16:40:19.107Z,25.79
2019-06-11T16:41:19.394Z,25.83
2019-06-11T16:42:18.948Z,25.84
2019-06-11T16:43:19.449Z,25.87
2019-06-11T16:44:22.726Z,25.91
2019-06-11T16:45:18.031Z,25.90
2019-06-11T16:46:25.302Z,25.91
2019-06-11T16:47:23.222Z,25.87
2019-06-11T16:48:18.324Z,25.80
2019-06-11T16:49:19.917Z,25.67
2019-06-11T16:50:22.288Z,25.59
2019-06-11T16:51:19.015Z,25.50
2019-06-11T16:52:19.162Z,25.52
2019-06-11T16:53:21.070Z,25.61
2019-06-11T16:54:20.325Z,25.57
2019-06-11T16:55:21.018Z,25.64
2019-06-11T16:56:21.503Z,25.67
2019-06-11T16:57:20.850Z,25.64
2019-06-11T16:58:21.664Z,25.61
2019-06-11T16:59:20.502Z,25.59
2019-06-11T17:00:28.139Z,25.64
2019-06-11T17:01:20.340Z,25.71
2019-06-11T17:02:19.751Z,25.67
2019-06-11T17:03:24.198Z,25.59
2019-06-11T17:04:21.131Z,25.59
2019-06-11T17:05:25.263Z,25.65
2019-06-11T17:06:21.567Z,25.72
2019-06-11T17:07:19.111Z,25.64
2019-06-11T17:08:25.407Z,25.53
2019-06-11T17:09:19.221Z,25.54
2019-06-11T17:10:22.774Z,25.62
2019-06-11T17:11:23.378Z,25.59
2019-06-11T17:12:24.772Z,25.47
2019-06-11T17:13:20.624Z,25.57
2019-06-11T17:14:23.708Z,25.38
2019-06-11T17:15:23.303Z,25.37
2019-06-11T17:16:32.567Z,25.39
2019-06-11T17:17:23.222Z,25.42
2019-06-11T17:18:23.074Z,25.43
2019-06-11T17:19:22.165Z,25.35
2019-06-11T17:20:23.704Z,25.43
2019-06-11T17:21:26.561Z,25.39
2019-06-11T17:22:24.992Z,25.39
2019-06-11T17:23:23.476Z,25.49
2019-06-11T17:24:23.497Z,25.57
2019-06-11T17:25:25.542Z,25.59
2019-06-11T17:26:26.849Z,25.59
2019-06-11T17:27:26.547Z,25.59
2019-06-11T17:28:23.870Z,25.59
2019-06-11T17:29:22.041Z,25.61
2019-06-11T17:30:23.011Z,25.68